Time;durP1;ratioP1;P1;durP2;ratioP2;P2;SDS_P1;SDS_P2;PMS_P1;PMS_P2;Temp;Humidity;BMP_temperature;BMP_pressure;BME280_temperature;BME280_humidity;BME280_pressure;Samples;Min_cycle;Max_cycle;Signal;HPM_P1;HPM_P2
2023/05/24 00:01:25;;;;;;;36.97;22.73;;;14.40;99.90;;;;;;5093770;28;20461;-75
2023/05/24 00:03:53;;;;;;;15.50;11.07;;;14.40;99.90;;;;;;5089006;28;20549;-75
2023/05/24 00:06:20;;;;;;;10.60;6.07;;;14.40;99.90;;;;;;5076405;28;21026;-75
2023/05/24 00:08:49;;;;;;;30.23;21.47;;;14.40;99.90;;;;;;5076585;28;21004;-75
2023/05/24 00:11:16;;;;;;;19.50;10.43;;;14.40;99.90;;;;;;5085512;28;20460;-77
2023/05/24 00:13:43;;;;;;;6.53;3.70;;;14.40;99.90;;;;;;5096724;28;20211;-76
2023/05/24 00:16:10;;;;;;;8.80;3.27;;;14.40;99.90;;;;;;5096263;28;20550;-75
2023/05/24 00:18:39;;;;;;;28.33;17.43;;;14.30;99.90;;;;;;5096876;28;20480;-76
2023/05/24 00:21:07;;;;;;;10.97;6.40;;;14.30;99.90;;;;;;5096484;28;20465;-75
2023/05/24 00:23:34;;;;;;;21.17;15.20;;;14.30;99.90;;;;;;5096876;28;20480;-75
2023/05/24 00:26:02;;;;;;;11.27;5.50;;;14.30;99.90;;;;;;5095779;28;21015;-75
2023/05/24 00:28:31;;;;;;;13.63;5.93;;;14.30;99.90;;;;;;5094826;28;20469;-74
2023/05/24 00:30:58;;;;;;;6.87;4.23;;;14.30;99.90;;;;;;5094764;28;20540;-75
2023/05/24 00:33:26;;;;;;;6.47;3.43;;;14.30;99.90;;;;;;5095031;28;20835;-76
2023/05/24 00:35:55;;;;;;;17.17;9.57;;;14.30;99.90;;;;;;5090651;28;20506;-76
2023/05/24 00:38:22;;;;;;;11.20;4.10;;;14.30;99.90;;;;;;5094857;28;20458;-75
2023/05/24 00:40:49;;;;;;;9.60;4.50;;;14.30;99.90;;;;;;5095614;28;20538;-75
2023/05/24 00:43:18;;;;;;;20.27;12.43;;;14.30;99.90;;;;;;5094782;28;20477;-74
2023/05/24 00:45:45;;;;;;;51.30;33.63;;;14.30;99.90;;;;;;5095190;28;20473;-74
2023/05/24 00:48:13;;;;;;;51.25;37.20;;;14.30;99.90;;;;;;5095392;28;20527;-76
2023/05/24 00:50:41;;;;;;;18.47;11.37;;;14.30;99.90;;;;;;5095855;28;20227;-75
2023/05/24 00:53:12;;;;;;;17.60;12.50;;;14.30;99.90;;;;;;5095005;28;20556;-76
2023/05/24 00:55:40;;;;;;;66.40;45.10;;;14.20;99.90;;;;;;5095233;28;21009;-74
2023/05/24 00:58:07;;;;;;;65.10;45.50;;;14.30;99.90;;;;;;5096365;28;20470;-74
2023/05/24 01:00:37;;;;;;;34.27;24.90;;;14.30;99.90;;;;;;5096398;28;20457;-75
2023/05/24 01:03:04;;;;;;;39.10;28.57;;;14.20;99.90;;;;;;5096327;28;20474;-76
2023/05/24 01:05:33;;;;;;;15.87;9.77;;;14.30;99.90;;;;;;5096444;28;20539;-75
2023/05/24 01:08:13;;;;;;;18.37;10.53;;;14.20;99.90;;;;;;5095793;28;20468;-76
2023/05/24 01:10:50;;;;;;;45.53;22.17;;;14.30;99.90;;;;;;5094532;28;20947;-74
2023/05/24 01:13:24;;;;;;;40.80;24.10;;;14.30;99.90;;;;;;5095840;28;20243;-75
2023/05/24 01:15:59;;;;;;;18.63;10.67;;;14.30;99.90;;;;;;5096218;28;20470;-76
2023/05/24 01:18:31;;;;;;;23.10;16.53;;;14.20;99.90;;;;;;5095870;28;20514;-75
2023/05/24 01:21:06;;;;;;;14.57;9.87;;;14.30;99.90;;;;;;5096386;28;20527;-76
2023/05/24 01:23:44;;;;;;;13.83;6.70;;;14.20;99.90;;;;;;5095448;28;20475;-75
2023/05/24 01:26:30;;;;;;;61.73;33.70;;;14.30;99.90;;;;;;5095083;28;20530;-75
2023/05/24 01:29:01;;;;;;;20.73;14.00;;;14.30;99.90;;;;;;5095749;28;20572;-74
2023/05/24 01:31:28;;;;;;;41.88;23.45;;;14.30;99.90;;;;;;5095196;28;20481;-75
2023/05/24 01:33:57;;;;;;;60.87;38.50;;;14.30;99.90;;;;;;5094697;28;20220;-75
2023/05/24 01:36:24;;;;;;;10.70;7.50;;;14.30;99.90;;;;;;5090702;28;20548;-76
2023/05/24 01:38:55;;;;;;;6.07;3.80;;;14.30;99.90;;;;;;5095798;28;20854;-75
2023/05/24 01:41:35;;;;;;;9.10;2.93;;;14.30;99.90;;;;;;5094860;28;20461;-74
2023/05/24 01:44:13;;;;;;;14.03;7.77;;;14.30;99.90;;;;;;5094798;28;21024;-75
2023/05/24 01:46:40;;;;;;;11.47;4.73;;;14.30;99.90;;;;;;5095118;28;20962;-75
2023/05/24 01:49:16;;;;;;;11.13;4.37;;;14.30;99.90;;;;;;5094903;28;20469;-75
2023/05/24 01:51:49;;;;;;;16.07;3.97;;;14.30;99.90;;;;;;5090761;28;20548;-76
2023/05/24 01:54:22;;;;;;;10.13;3.50;;;14.20;99.90;;;;;;5094866;28;20487;-76
2023/05/24 01:56:52;;;;;;;14.50;6.33;;;14.30;99.90;;;;;;5094681;28;20461;-75
2023/05/24 01:59:22;;;;;;;9.03;4.87;;;14.30;99.90;;;;;;5094453;28;20457;-76
2023/05/24 02:01:50;;;;;;;7.50;4.20;;;14.30;99.90;;;;;;5094280;28;20927;-77
2023/05/24 02:04:17;;;;;;;9.00;4.60;;;14.30;99.90;;;;;;5092951;28;20476;-75
2023/05/24 02:06:45;;;;;;;17.13;8.20;;;14.30;99.90;;;;;;5094041;28;20478;-75
2023/05/24 02:09:12;;;;;;;10.67;3.53;;;14.30;99.90;;;;;;5094706;28;20470;-76
2023/05/24 02:11:39;;;;;;;16.13;6.20;;;14.30;99.90;;;;;;5093261;28;20477;-75
2023/05/24 02:14:06;;;;;;;9.67;4.73;;;14.30;99.90;;;;;;5094328;28;20473;-75
2023/05/24 02:16:41;;;;;;;10.70;3.30;;;14.30;99.90;;;;;;5093414;28;20469;-75
2023/05/24 02:19:08;;;;;;;11.47;4.43;;;14.30;99.90;;;;;;5093663;28;20484;-76
2023/05/24 02:21:35;;;;;;;5.27;2.67;;;14.30;99.90;;;;;;5093956;28;20535;-74
2023/05/24 02:24:02;;;;;;;9.20;3.53;;;14.30;99.90;;;;;;5094191;28;20465;-74
2023/05/24 02:26:29;;;;;;;8.73;3.90;;;14.20;99.90;;;;;;5094131;28;20473;-75
2023/05/24 02:28:56;;;;;;;7.77;3.37;;;14.30;99.90;;;;;;5094269;28;20929;-75
2023/05/24 02:31:24;;;;;;;6.23;2.30;;;14.20;99.90;;;;;;5094401;28;20476;-75
2023/05/24 02:33:54;;;;;;;6.23;3.20;;;14.20;99.90;;;;;;5093302;28;20450;-75
2023/05/24 02:36:22;;;;;;;5.37;3.47;;;14.20;99.90;;;;;;5089760;28;20579;-76
2023/05/24 02:38:49;;;;;;;13.53;7.07;;;14.20;99.90;;;;;;5093107;28;20567;-75
2023/05/24 02:41:17;;;;;;;15.50;10.10;;;14.30;99.90;;;;;;5093915;28;20457;-75
2023/05/24 02:43:44;;;;;;;12.30;6.63;;;14.30;99.90;;;;;;5093346;28;20556;-74
2023/05/24 02:46:14;;;;;;;15.73;9.40;;;14.30;99.90;;;;;;5093719;28;20476;-75
2023/05/24 02:48:41;;;;;;;33.70;20.13;;;14.20;99.90;;;;;;5093555;28;20774;-74
2023/05/24 02:51:13;;;;;;;29.13;16.27;;;14.20;99.90;;;;;;5093737;28;20474;-74
2023/05/24 02:53:42;;;;;;;33.93;20.43;;;14.20;99.90;;;;;;5093235;28;20467;-75
2023/05/24 02:56:10;;;;;;;15.23;9.20;;;14.20;99.90;;;;;;5093673;28;20990;-73
2023/05/24 02:58:39;;;;;;;22.67;10.67;;;14.20;99.90;;;;;;5093237;28;20496;-75
2023/05/24 03:01:06;;;;;;;14.00;8.67;;;14.20;99.90;;;;;;5094267;28;20522;-75
2023/05/24 03:03:33;;;;;;;8.43;3.90;;;14.20;99.90;;;;;;5093295;28;20484;-74
2023/05/24 03:06:00;;;;;;;6.60;3.23;;;14.20;99.90;;;;;;5093625;28;20461;-74
2023/05/24 03:08:28;;;;;;;8.37;4.03;;;14.10;99.90;;;;;;5093646;28;20472;-75
2023/05/24 03:10:56;;;;;;;17.10;7.23;;;14.10;99.90;;;;;;5093253;28;20809;-75
2023/05/24 03:13:43;;;;;;;9.97;4.20;;;14.10;99.90;;;;;;5093505;28;20480;-77
2023/05/24 03:16:10;;;;;;;7.50;3.23;;;14.10;99.90;;;;;;5093427;28;20465;-76
2023/05/24 03:18:37;;;;;;;12.00;4.30;;;14.10;99.90;;;;;;5092537;28;20457;-75
2023/05/24 03:21:04;;;;;;;6.73;3.50;;;14.10;99.90;;;;;;5093642;28;20797;-76
2023/05/24 03:23:32;;;;;;;8.30;3.93;;;14.10;99.90;;;;;;5092568;28;21020;-75
2023/05/24 03:26:01;;;;;;;10.93;4.93;;;14.10;99.90;;;;;;5092891;28;20788;-75
2023/05/24 03:28:28;;;;;;;8.60;4.30;;;14.00;99.90;;;;;;5092869;28;20540;-76
2023/05/24 03:30:56;;;;;;;15.27;6.63;;;14.00;99.90;;;;;;5093008;28;20469;-75
2023/05/24 03:33:22;;;;;;;8.20;4.33;;;14.00;99.90;;;;;;5093055;28;20485;-75
2023/05/24 03:35:49;;;;;;;7.20;3.50;;;14.00;99.90;;;;;;5088848;28;20473;-76
2023/05/24 03:38:16;;;;;;;11.35;4.13;;;14.00;99.90;;;;;;5093318;28;20493;-77
2023/05/24 03:40:45;;;;;;;13.40;3.57;;;14.00;99.90;;;;;;5092964;28;20637;-74
2023/05/24 03:43:12;;;;;;;5.30;3.93;;;14.00;99.90;;;;;;5093348;28;20530;-76
2023/05/24 03:45:39;;;;;;;10.85;4.30;;;14.00;99.90;;;;;;5092777;28;22805;-76
2023/05/24 03:48:06;;;;;;;11.57;4.10;;;13.90;99.90;;;;;;5093429;28;20260;-77
2023/05/24 03:50:33;;;;;;;9.33;3.30;;;14.00;99.90;;;;;;5092746;28;20469;-75
2023/05/24 03:53:14;;;;;;;15.63;4.40;;;14.00;99.90;;;;;;5093294;28;20998;-76
2023/05/24 03:55:44;;;;;;;11.77;5.40;;;14.00;99.90;;;;;;5092476;28;20505;-74
2023/05/24 03:58:13;;;;;;;6.00;3.10;;;14.00;99.90;;;;;;5093445;28;20348;-74
2023/05/24 04:00:40;;;;;;;6.80;3.53;;;13.90;99.90;;;;;;5092570;28;20693;-74
2023/05/24 04:03:07;;;;;;;11.90;3.73;;;14.00;99.90;;;;;;5093191;28;20465;-74
2023/05/24 04:05:34;;;;;;;7.20;3.80;;;14.00;99.90;;;;;;5092340;28;20477;-75
2023/05/24 04:08:02;;;;;;;6.50;3.60;;;14.00;99.90;;;;;;5092913;28;20453;-74
2023/05/24 04:10:29;;;;;;;7.67;3.57;;;14.00;99.90;;;;;;5092210;28;20505;-74
2023/05/24 04:12:57;;;;;;;11.57;4.93;;;14.00;99.90;;;;;;5092912;28;20465;-75
2023/05/24 04:15:37;;;;;;;7.57;3.27;;;14.00;99.90;;;;;;5092440;28;20829;-75
2023/05/24 04:18:05;;;;;;;10.13;4.40;;;14.00;99.90;;;;;;5092954;28;20475;-74
2023/05/24 04:20:32;;;;;;;10.07;5.20;;;14.10;99.90;;;;;;5092761;28;20943;-77
2023/05/24 04:22:59;;;;;;;16.37;8.90;;;14.10;99.90;;;;;;5092348;28;20492;-74
2023/05/24 04:25:27;;;;;;;8.70;3.80;;;14.10;99.90;;;;;;5092390;28;20481;-74
2023/05/24 04:27:56;;;;;;;8.83;4.50;;;14.10;99.90;;;;;;5095583;28;20496;-75
2023/05/24 04:30:29;;;;;;;8.17;3.13;;;14.10;99.90;;;;;;5102308;27;20950;-76
2023/05/24 04:32:56;;;;;;;11.50;3.70;;;14.10;99.90;;;;;;5096647;28;20487;-75
2023/05/24 04:35:24;;;;;;;10.40;3.17;;;14.20;99.90;;;;;;5096893;28;20464;-76
2023/05/24 04:37:52;;;;;;;11.20;3.77;;;14.10;99.90;;;;;;5097253;28;20495;-76
2023/05/24 04:40:21;;;;;;;12.93;6.27;;;14.10;99.90;;;;;;5096665;28;20464;-76
2023/05/24 04:42:49;;;;;;;12.57;4.33;;;14.10;99.90;;;;;;5095935;28;20472;-74
2023/05/24 04:45:16;;;;;;;7.00;4.10;;;14.10;99.90;;;;;;5096436;28;20469;-75
2023/05/24 04:47:44;;;;;;;9.60;3.40;;;14.10;99.90;;;;;;5096695;28;21012;-74
2023/05/24 04:50:11;;;;;;;7.00;3.70;;;14.10;99.90;;;;;;5096702;28;20469;-76
2023/05/24 04:52:38;;;;;;;10.00;4.80;;;14.20;99.90;;;;;;5097955;27;20784;-75
2023/05/24 04:55:06;;;;;;;20.60;9.77;;;14.20;99.90;;;;;;5094996;28;20489;-75
2023/05/24 04:57:33;;;;;;;11.07;4.70;;;14.20;99.90;;;;;;5097654;27;20512;-75
2023/05/24 05:00:06;;;;;;;9.63;3.80;;;14.10;99.90;;;;;;5087926;28;21013;-76
2023/05/24 05:02:33;;;;;;;6.17;3.27;;;14.20;99.90;;;;;;5110645;28;20488;-75
2023/05/24 05:05:02;;;;;;;7.00;3.67;;;14.20;99.90;;;;;;5096057;28;20849;-77
2023/05/24 05:07:31;;;;;;;14.50;4.50;;;14.20;99.90;;;;;;5096365;28;20454;-76
2023/05/24 05:09:58;;;;;;;14.83;4.87;;;14.20;99.90;;;;;;5095459;28;20841;-76
2023/05/24 05:12:25;;;;;;;12.63;4.87;;;14.20;99.90;;;;;;5096475;28;20476;-74
2023/05/24 05:14:52;;;;;;;6.57;3.87;;;14.20;99.90;;;;;;5096497;28;20476;-75
2023/05/24 05:17:19;;;;;;;11.80;3.77;;;14.20;99.90;;;;;;5097338;28;20456;-76
2023/05/24 05:19:46;;;;;;;10.17;5.60;;;14.20;99.90;;;;;;5097356;28;20531;-76
2023/05/24 05:22:17;;;;;;;12.30;4.70;;;14.20;99.90;;;;;;5096996;28;20466;-76
2023/05/24 05:24:44;;;;;;;9.17;4.57;;;14.20;99.90;;;;;;5097228;28;20493;-75
2023/05/24 05:27:11;;;;;;;12.73;4.37;;;14.20;99.90;;;;;;5096253;28;20473;-75
2023/05/24 05:29:38;;;;;;;12.23;4.30;;;14.20;99.90;;;;;;5096780;28;20461;-76
2023/05/24 05:32:05;;;;;;;18.93;7.07;;;14.20;99.90;;;;;;5098044;28;20477;-76
2023/05/24 05:34:32;;;;;;;11.50;4.60;;;14.20;99.90;;;;;;5101197;28;20462;-76
2023/05/24 05:36:59;;;;;;;16.77;5.00;;;14.20;99.90;;;;;;5097891;28;20805;-76
2023/05/24 05:39:30;;;;;;;10.63;3.47;;;14.20;99.90;;;;;;5096037;28;20802;-75
2023/05/24 05:42:05;;;;;;;24.87;7.03;;;14.20;99.90;;;;;;5102096;28;20462;-75
2023/05/24 05:44:34;;;;;;;14.40;4.90;;;14.20;99.90;;;;;;5095906;27;20843;-75
2023/05/24 05:47:02;;;;;;;14.20;5.53;;;14.20;99.90;;;;;;5096999;28;20461;-76
2023/05/24 05:49:30;;;;;;;19.48;7.15;;;14.30;99.90;;;;;;5099925;28;20450;-77
2023/05/24 05:51:59;;;;;;;19.47;6.20;;;14.20;99.90;;;;;;5097436;28;20220;-76
2023/05/24 05:54:28;;;;;;;16.90;4.73;;;14.20;99.90;;;;;;5096107;28;20527;-76
2023/05/24 05:56:55;;;;;;;8.27;4.10;;;14.20;99.90;;;;;;5096177;28;20488;-76
2023/05/24 05:59:22;;;;;;;17.20;5.20;;;14.30;99.90;;;;;;5096472;28;20497;-75
2023/05/24 06:01:52;;;;;;;10.67;4.07;;;14.30;99.90;;;;;;5096224;28;20493;-76
2023/05/24 06:04:19;;;;;;;13.93;4.70;;;14.40;99.90;;;;;;5098295;28;20483;-75
2023/05/24 06:06:48;;;;;;;13.00;4.80;;;14.40;99.90;;;;;;5097588;28;20477;-75
2023/05/24 06:09:15;;;;;;;17.03;5.70;;;14.40;99.90;;;;;;5095181;28;20569;-75
2023/05/24 06:11:44;;;;;;;14.97;4.97;;;14.40;99.90;;;;;;5095532;28;20469;-75
2023/05/24 06:14:12;;;;;;;13.77;4.83;;;14.50;99.90;;;;;;5094331;28;20473;-76
2023/05/24 06:16:44;;;;;;;18.90;6.97;;;14.50;99.90;;;;;;5094489;28;20476;-76
2023/05/24 06:19:15;;;;;;;17.97;6.80;;;14.50;99.90;;;;;;5093696;28;20466;-77
2023/05/24 06:21:46;;;;;;;15.83;5.40;;;14.50;99.90;;;;;;5084574;28;20471;-75
2023/05/24 06:24:13;;;;;;;15.10;6.20;;;14.60;99.90;;;;;;5079655;28;20477;-75
2023/05/24 06:26:44;;;;;;;14.33;5.53;;;14.60;99.90;;;;;;5077314;28;20492;-75
2023/05/24 06:29:12;;;;;;;17.57;5.83;;;14.60;99.90;;;;;;5081075;28;20514;-76
2023/05/24 06:31:40;;;;;;;19.50;7.77;;;14.70;99.90;;;;;;5093272;28;20845;-77
2023/05/24 06:34:09;;;;;;;16.80;6.30;;;14.70;99.90;;;;;;5094149;28;20493;-75
2023/05/24 06:36:41;;;;;;;17.23;6.73;;;14.70;99.90;;;;;;5092043;28;20950;-75
2023/05/24 06:39:09;;;;;;;15.93;6.50;;;14.70;99.90;;;;;;5080584;28;20470;-75
2023/05/24 06:41:36;;;;;;;22.33;6.73;;;14.80;99.90;;;;;;5072593;28;20545;-76
2023/05/24 06:44:03;;;;;;;15.57;5.77;;;14.80;99.90;;;;;;5073529;28;20466;-75
2023/05/24 06:46:32;;;;;;;20.10;6.53;;;14.80;99.90;;;;;;5081386;28;20480;-77
2023/05/24 06:49:02;;;;;;;10.80;5.60;;;14.80;99.90;;;;;;5093456;28;20465;-75
2023/05/24 06:51:29;;;;;;;16.80;6.00;;;14.90;99.90;;;;;;5092918;28;20474;-76
2023/05/24 06:53:56;;;;;;;14.70;5.13;;;14.90;99.90;;;;;;5093865;28;20493;-76
2023/05/24 06:56:23;;;;;;;15.40;5.30;;;14.90;99.90;;;;;;5091085;28;20470;-76
2023/05/24 06:58:51;;;;;;;13.93;5.47;;;15.00;99.90;;;;;;5093407;28;20488;-76
2023/05/24 07:01:18;;;;;;;12.70;4.87;;;15.00;99.90;;;;;;5092515;28;20560;-77
2023/05/24 07:03:46;;;;;;;16.63;5.33;;;15.00;99.90;;;;;;5092314;28;20464;-76
2023/05/24 07:06:14;;;;;;;19.13;5.53;;;15.00;99.90;;;;;;5092037;28;20792;-77
2023/05/24 07:08:41;;;;;;;15.77;5.57;;;15.00;99.90;;;;;;5092057;28;20836;-76
2023/05/24 07:11:10;;;;;;;17.00;6.87;;;15.10;99.90;;;;;;5089186;28;20495;-77
2023/05/24 07:13:37;;;;;;;14.33;5.17;;;15.10;99.90;;;;;;5101301;28;20480;-76
2023/05/24 07:16:04;;;;;;;22.03;5.97;;;15.00;99.90;;;;;;5093522;28;20493;-76
2023/05/24 07:18:31;;;;;;;11.70;5.17;;;15.00;99.90;;;;;;5091729;28;20473;-76
2023/05/24 07:20:59;;;;;;;13.97;4.83;;;15.00;99.90;;;;;;5093275;28;20458;-77
2023/05/24 07:23:26;;;;;;;17.53;6.57;;;15.10;99.90;;;;;;5092737;28;20469;-77
2023/05/24 07:25:53;;;;;;;17.27;5.70;;;15.10;99.90;;;;;;5093173;28;20461;-76
2023/05/24 07:28:20;;;;;;;11.00;4.90;;;15.10;99.90;;;;;;5093109;28;20469;-75
2023/05/24 07:30:48;;;;;;;18.67;8.17;;;15.20;99.90;;;;;;5092757;28;20553;-76
2023/05/24 07:33:15;;;;;;;13.17;5.10;;;15.20;99.90;;;;;;5093052;28;20493;-76
2023/05/24 07:35:44;;;;;;;12.70;5.03;;;15.30;99.90;;;;;;5092519;28;20527;-76
2023/05/24 07:38:12;;;;;;;15.53;5.20;;;15.30;99.90;;;;;;5092833;28;20473;-76
2023/05/24 07:40:39;;;;;;;13.00;5.33;;;15.30;99.90;;;;;;5093108;28;20951;-76
2023/05/24 07:43:12;;;;;;;11.20;5.37;;;15.30;99.90;;;;;;5093853;28;20469;-74
2023/05/24 07:45:39;;;;;;;26.60;11.43;;;15.40;99.90;;;;;;5092741;28;20556;-76
2023/05/24 07:48:06;;;;;;;13.20;5.77;;;15.40;99.90;;;;;;5093461;28;20489;-76
2023/05/24 07:50:33;;;;;;;18.00;7.67;;;15.50;99.90;;;;;;5093547;28;20546;-75
2023/05/24 07:53:00;;;;;;;15.10;6.53;;;15.50;99.90;;;;;;5093517;28;20958;-75
2023/05/24 07:55:29;;;;;;;12.13;5.50;;;15.60;99.90;;;;;;5092322;28;20473;-76
2023/05/24 07:57:56;;;;;;;19.83;5.23;;;15.60;99.90;;;;;;5093488;28;20462;-76
2023/05/24 08:00:24;;;;;;;13.90;6.40;;;15.60;99.90;;;;;;5094170;28;20465;-75
2023/05/24 08:02:51;;;;;;;13.00;4.93;;;15.70;99.90;;;;;;5096515;28;20453;-74
2023/05/24 08:05:18;;;;;;;18.43;5.90;;;15.70;99.90;;;;;;5096650;28;20859;-74
2023/05/24 08:07:45;;;;;;;8.97;5.20;;;15.70;99.90;;;;;;5096130;28;20488;-74
2023/05/24 08:10:12;;;;;;;11.70;5.30;;;15.80;99.90;;;;;;5096607;28;20466;-75
2023/05/24 08:12:41;;;;;;;14.37;6.90;;;15.80;99.90;;;;;;5101810;28;20543;-74
2023/05/24 08:15:09;;;;;;;10.57;4.57;;;15.80;99.90;;;;;;5096551;28;20473;-75
2023/05/24 08:17:36;;;;;;;21.53;10.87;;;15.90;99.90;;;;;;5095878;28;20527;-75
2023/05/24 08:20:05;;;;;;;10.80;4.90;;;15.90;99.90;;;;;;5096176;28;20469;-75
2023/05/24 08:22:32;;;;;;;16.10;6.47;;;15.90;99.90;;;;;;5095303;28;20477;-75
2023/05/24 08:24:59;;;;;;;15.73;5.47;;;15.70;99.90;;;;;;5096541;28;20548;-75
2023/05/24 08:27:27;;;;;;;16.00;5.50;;;15.70;99.90;;;;;;5095991;28;20473;-75
2023/05/24 08:29:56;;;;;;;14.30;5.83;;;15.80;99.90;;;;;;5095767;28;20962;-74
2023/05/24 08:32:23;;;;;;;10.43;4.83;;;15.70;99.90;;;;;;5096108;28;20810;-76
2023/05/24 08:34:50;;;;;;;9.53;4.77;;;15.80;99.90;;;;;;5096322;28;20989;-74
2023/05/24 08:37:19;;;;;;;10.60;5.47;;;15.80;99.90;;;;;;5096421;28;20480;-76
2023/05/24 08:39:46;;;;;;;12.40;7.73;;;15.80;99.90;;;;;;5096356;28;20461;-75
2023/05/24 08:42:14;;;;;;;9.87;4.93;;;15.80;99.90;;;;;;5099730;28;20494;-76
2023/05/24 08:44:47;;;;;;;13.10;5.30;;;15.80;99.90;;;;;;5098127;28;20461;-76
2023/05/24 08:47:16;;;;;;;10.77;5.57;;;15.80;99.90;;;;;;5096369;28;20481;-76
2023/05/24 08:49:43;;;;;;;15.87;5.60;;;15.80;99.90;;;;;;5095909;28;20461;-76
2023/05/24 08:52:11;;;;;;;12.93;5.33;;;15.80;99.90;;;;;;5095555;28;20501;-74
2023/05/24 08:54:40;;;;;;;13.80;5.50;;;15.80;99.90;;;;;;5095564;28;20813;-76
2023/05/24 08:57:09;;;;;;;10.60;5.50;;;15.80;99.90;;;;;;5096072;28;20469;-75
2023/05/24 08:59:38;;;;;;;13.97;8.20;;;15.80;99.90;;;;;;5096154;28;20465;-76
2023/05/24 09:02:05;;;;;;;19.43;7.40;;;15.90;99.90;;;;;;5094856;28;20466;-76
2023/05/24 09:04:35;;;;;;;18.27;7.80;;;15.90;99.90;;;;;;5095567;28;20947;-76
2023/05/24 09:07:04;;;;;;;15.03;5.43;;;16.00;99.90;;;;;;5095769;28;20457;-74
2023/05/24 09:09:34;;;;;;;14.00;6.20;;;16.00;99.90;;;;;;5096069;28;20465;-76
2023/05/24 09:12:07;;;;;;;13.10;6.40;;;16.00;99.90;;;;;;5094541;28;20506;-75
2023/05/24 09:14:34;;;;;;;12.47;6.03;;;16.10;99.90;;;;;;5095659;28;20554;-77
2023/05/24 09:17:02;;;;;;;11.10;5.57;;;16.10;99.90;;;;;;5095205;28;20514;-76
2023/05/24 09:19:29;;;;;;;14.43;7.63;;;16.10;99.90;;;;;;5095686;28;20532;-75
2023/05/24 09:22:18;;;;;;;11.00;5.40;;;16.20;99.90;;;;;;5095442;28;20530;-76
2023/05/24 09:24:48;;;;;;;9.97;4.57;;;16.30;99.90;;;;;;5095444;28;20461;-74
2023/05/24 09:27:16;;;;;;;15.20;5.70;;;16.30;99.90;;;;;;5094873;28;20473;-74
2023/05/24 09:29:45;;;;;;;11.03;6.07;;;16.30;99.90;;;;;;5094403;28;20469;-74
2023/05/24 09:32:13;;;;;;;8.63;5.40;;;16.40;99.90;;;;;;5095153;28;20492;-75
2023/05/24 09:34:40;;;;;;;12.13;4.13;;;16.40;99.90;;;;;;5094470;28;20495;-75
2023/05/24 09:37:12;;;;;;;9.00;4.90;;;16.40;99.90;;;;;;5095317;28;20871;-76
2023/05/24 09:39:42;;;;;;;16.33;5.83;;;16.50;99.90;;;;;;5095143;28;20481;-76
2023/05/24 09:42:08;;;;;;;9.80;4.80;;;16.50;99.50;;;;;;5094762;28;20476;-76
2023/05/24 09:44:36;;;;;;;12.83;5.10;;;16.50;99.60;;;;;;5095220;28;20461;-76
2023/05/24 09:47:04;;;;;;;9.00;3.83;;;16.50;99.50;;;;;;5086553;28;20802;-75
2023/05/24 09:49:31;;;;;;;9.77;4.13;;;16.60;99.50;;;;;;5107808;28;20557;-75
2023/05/24 09:52:02;;;;;;;9.80;4.83;;;16.60;99.50;;;;;;5094266;28;20481;-74
2023/05/24 09:54:32;;;;;;;13.77;5.33;;;16.60;99.40;;;;;;5095168;28;20481;-76
2023/05/24 09:57:07;;;;;;;19.53;5.27;;;16.70;99.40;;;;;;5094820;28;20465;-74
2023/05/24 09:59:34;;;;;;;11.13;4.80;;;16.60;99.10;;;;;;5095614;28;20465;-77
2023/05/24 10:02:10;;;;;;;11.90;5.07;;;16.70;99.30;;;;;;5094798;28;20454;-77
2023/05/24 10:04:38;;;;;;;8.67;4.70;;;16.70;99.30;;;;;;5095017;28;20544;-75
2023/05/24 10:07:06;;;;;;;13.60;5.30;;;16.70;99.30;;;;;;5094338;28;20506;-74
2023/05/24 10:09:35;;;;;;;10.23;4.57;;;16.70;99.20;;;;;;5094243;28;20469;-73
2023/05/24 10:12:05;;;;;;;16.43;6.00;;;16.70;99.30;;;;;;5094564;28;20975;-74
2023/05/24 10:14:34;;;;;;;9.60;4.57;;;16.70;99.20;;;;;;5094588;28;20803;-74
2023/05/24 10:17:02;;;;;;;9.83;3.87;;;16.80;99.20;;;;;;5094244;28;20469;-74
2023/05/24 10:19:29;;;;;;;9.03;4.10;;;16.80;99.00;;;;;;5094778;28;20519;-74
2023/05/24 10:21:58;;;;;;;16.47;4.80;;;16.80;98.70;;;;;;5094172;28;20523;-74
2023/05/24 10:24:28;;;;;;;14.57;5.07;;;16.90;98.60;;;;;;5093144;28;20842;-74
2023/05/24 10:26:57;;;;;;;10.27;4.50;;;16.90;98.60;;;;;;5093859;28;20530;-74
2023/05/24 10:29:36;;;;;;;6.30;4.50;;;16.90;98.40;;;;;;5094351;28;20526;-75
2023/05/24 10:32:08;;;;;;;9.90;3.60;;;17.00;98.40;;;;;;5093958;28;20532;-75
2023/05/24 10:34:36;;;;;;;7.23;4.93;;;17.20;97.80;;;;;;5093851;28;20493;-76
2023/05/24 10:37:03;;;;;;;9.10;5.10;;;17.30;97.40;;;;;;5093793;28;20466;-75
2023/05/24 10:39:33;;;;;;;8.20;4.23;;;17.40;97.10;;;;;;5097696;28;20456;-74
2023/05/24 10:42:05;;;;;;;8.40;3.90;;;17.50;97.00;;;;;;5096239;28;20462;-75
2023/05/24 10:44:32;;;;;;;8.03;3.30;;;17.60;96.80;;;;;;5094494;28;20847;-74
2023/05/24 10:47:07;;;;;;;19.03;5.87;;;17.70;96.70;;;;;;5093410;28;20473;-74
2023/05/24 10:49:38;;;;;;;10.80;4.77;;;17.80;96.70;;;;;;5093799;28;20488;-73
2023/05/24 10:52:08;;;;;;;10.50;5.80;;;17.80;96.70;;;;;;5093633;28;20530;-75
2023/05/24 10:54:37;;;;;;;6.53;4.37;;;17.80;96.90;;;;;;5094037;28;20803;-75
2023/05/24 10:57:07;;;;;;;5.67;4.13;;;17.90;96.50;;;;;;5093252;28;20487;-74
2023/05/24 10:59:37;;;;;;;5.73;3.30;;;17.90;96.00;;;;;;5093887;28;20473;-74
2023/05/24 11:02:08;;;;;;;8.13;4.50;;;17.90;95.80;;;;;;5099521;28;20488;-74
2023/05/24 11:04:38;;;;;;;14.30;3.87;;;17.90;95.30;;;;;;5093702;28;20453;-74
2023/05/24 11:07:08;;;;;;;6.70;3.37;;;17.90;95.50;;;;;;5092842;28;20545;-74
2023/05/24 11:09:36;;;;;;;9.00;3.80;;;17.90;95.60;;;;;;5093711;28;20453;-75
2023/05/24 11:12:07;;;;;;;9.20;4.03;;;17.90;95.60;;;;;;5092845;28;20460;-75
2023/05/24 11:14:37;;;;;;;6.33;3.77;;;17.80;95.50;;;;;;5093284;28;20480;-74
2023/05/24 11:17:05;;;;;;;5.00;3.27;;;17.80;95.50;;;;;;5093044;28;20508;-73
2023/05/24 11:19:37;;;;;;;5.90;4.10;;;17.80;95.20;;;;;;5093422;28;20461;-74
2023/05/24 11:22:07;;;;;;;5.17;3.03;;;17.70;95.30;;;;;;5092651;28;20465;-74
2023/05/24 11:24:35;;;;;;;7.90;4.30;;;17.60;95.30;;;;;;5092795;28;20549;-74
2023/05/24 11:27:03;;;;;;;9.50;4.20;;;17.60;95.30;;;;;;5093386;28;20487;-75
2023/05/24 11:29:31;;;;;;;5.57;3.77;;;17.60;95.40;;;;;;5093377;28;20461;-75
2023/05/24 11:32:03;;;;;;;8.77;4.77;;;17.60;95.30;;;;;;5093187;28;20879;-75
2023/05/24 11:34:30;;;;;;;8.33;3.63;;;17.60;95.30;;;;;;5093393;28;20457;-76
2023/05/24 11:37:15;;;;;;;8.10;3.30;;;17.60;95.20;;;;;;5093097;28;20542;-74
2023/05/24 11:39:43;;;;;;;6.30;3.50;;;17.60;95.00;;;;;;5093820;28;20461;-74
2023/05/24 11:42:10;;;;;;;6.20;4.47;;;17.60;95.20;;;;;;5092533;28;20458;-74
2023/05/24 11:44:39;;;;;;;5.50;4.47;;;17.70;95.20;;;;;;5092747;28;20500;-75
2023/05/24 11:47:14;;;;;;;5.33;3.40;;;17.80;94.80;;;;;;5092570;28;20471;-75
2023/05/24 11:49:41;;;;;;;5.73;3.47;;;17.90;94.70;;;;;;5093601;28;20473;-74
2023/05/24 11:52:08;;;;;;;7.23;3.63;;;18.00;94.70;;;;;;5092308;28;20457;-76
2023/05/24 11:54:37;;;;;;;5.83;3.47;;;18.00;94.40;;;;;;5093246;28;20498;-76
2023/05/24 11:57:05;;;;;;;8.57;2.80;;;18.10;93.90;;;;;;5092091;28;20493;-75
2023/05/24 11:59:36;;;;;;;4.27;3.30;;;18.10;93.80;;;;;;5088577;28;20571;-76
2023/05/24 12:02:09;;;;;;;6.77;3.13;;;18.10;93.20;;;;;;5101764;28;20473;-74
2023/05/24 12:04:36;;;;;;;9.60;4.77;;;18.10;92.90;;;;;;5093023;28;20469;-75
2023/05/24 12:07:04;;;;;;;6.90;4.87;;;18.10;93.20;;;;;;5092732;28;20930;-75
2023/05/24 12:09:31;;;;;;;4.70;3.13;;;18.10;93.00;;;;;;5092997;28;21026;-76
2023/05/24 12:12:00;;;;;;;6.13;3.40;;;18.10;93.40;;;;;;5092401;28;20496;-75
2023/05/24 12:14:29;;;;;;;10.23;4.27;;;18.10;93.60;;;;;;5092485;28;20541;-75
2023/05/24 12:17:00;;;;;;;8.00;3.40;;;18.10;93.90;;;;;;5092914;28;20469;-75
2023/05/24 12:19:33;;;;;;;9.40;4.73;;;18.00;94.20;;;;;;5093417;28;20497;-77
2023/05/24 12:22:07;;;;;;;6.00;3.80;;;18.00;94.30;;;;;;5091638;28;20465;-76
2023/05/24 12:24:35;;;;;;;9.30;3.70;;;18.00;94.30;;;;;;5092186;28;20492;-76
2023/05/24 12:27:07;;;;;;;6.37;3.73;;;18.00;94.30;;;;;;5092770;28;20461;-74
2023/05/24 12:29:35;;;;;;;3.60;2.83;;;18.00;93.90;;;;;;5092252;28;20526;-75
2023/05/24 12:32:03;;;;;;;6.80;3.30;;;18.00;94.00;;;;;;5089980;28;20503;-75
2023/05/24 12:34:33;;;;;;;5.30;3.17;;;18.00;94.00;;;;;;5099691;28;20477;-74
2023/05/24 12:37:00;;;;;;;5.63;4.00;;;18.00;94.10;;;;;;5092281;28;20498;-74
2023/05/24 12:39:30;;;;;;;6.63;3.60;;;17.90;93.90;;;;;;5090967;28;20457;-75
2023/05/24 12:41:58;;;;;;;3.47;2.87;;;17.90;93.90;;;;;;5092712;28;20967;-76
2023/05/24 12:44:26;;;;;;;6.87;3.67;;;18.00;94.00;;;;;;5091698;28;20477;-74
2023/05/24 12:46:54;;;;;;;6.20;3.93;;;18.00;94.00;;;;;;5092750;28;20796;-75
2023/05/24 12:49:21;;;;;;;8.63;3.87;;;18.00;93.80;;;;;;5095150;28;20556;-76